Terminal Aerodrome Forecast
Issued by NWS Billings, MT

Home | Current Version | Previous Version | Text Only | Print | Product List | Glossary On
Versions: 1 2 3 4 5 6 7 8 9 10 11 12 13 14 15 16 17 18 19 20 21 22 23 24 25 26 27 28 29 30 31 32 33 34 35 36
148
FTUS45 KBYZ 142328
TAFSHR
TAF
KSHR 142328Z 1500/1524 28010KT P6SM VCSH BKN050 WS020/31040KT
      TEMPO 1502/1505 30015G30KT
     FM151200 VRB06KT P6SM SCT050 WS020/31035KT
     FM151400 VRB06KT P6SM VCSH SCT050 WS020/31035KT
     FM151800 30015G30KT P6SM VCSH OVC050
     FM152200 30025G40KT P6SM VCSH OVC050=

USA.gov is the U.S. government's official web portal to all federal, state and local government web resources and services.